Time;durP1;ratioP1;P1;durP2;ratioP2;P2;SDS_P1;SDS_P2;PMS_P1;PMS_P2;Temp;Humidity;BMP_temperature;BMP_pressure;BME280_temperature;BME280_humidity;BME280_pressure;Samples;Min_cycle;Max_cycle;Signal;HPM_P1;HPM_P2
2023/08/30 00:00:17;;;;;;;3.95;3.08;;;13.70;99.90;;;;;;4998031;28;20124;-82
2023/08/30 00:02:44;;;;;;;2.53;2.33;;;13.40;99.90;;;;;;4981858;28;20042;-82
2023/08/30 00:05:09;;;;;;;2.67;2.47;;;13.30;99.90;;;;;;4982082;28;20474;-81
2023/08/30 00:07:35;;;;;;;2.30;2.20;;;13.40;99.90;;;;;;4982039;28;20038;-81
2023/08/30 00:10:02;;;;;;;2.80;2.60;;;13.60;99.90;;;;;;4981082;28;20033;-82
2023/08/30 00:12:27;;;;;;;2.70;2.50;;;14.20;99.90;;;;;;4997974;28;20045;-82
2023/08/30 00:14:53;;;;;;;2.45;2.25;;;15.40;99.90;;;;;;4997984;28;20477;-81
2023/08/30 00:17:19;;;;;;;2.72;2.53;;;15.70;99.90;;;;;;4997908;28;20038;-81
2023/08/30 00:19:45;;;;;;;2.33;2.13;;;14.90;99.90;;;;;;4981569;28;20489;-81
2023/08/30 00:22:12;;;;;;;2.90;2.65;;;15.30;99.90;;;;;;4997835;28;20038;-81
2023/08/30 00:24:38;;;;;;;3.00;2.63;;;15.40;99.90;;;;;;4981846;28;20038;-81
2023/08/30 00:27:04;;;;;;;2.90;2.70;;;15.80;99.90;;;;;;4997707;28;20096;-82
2023/08/30 00:29:30;;;;;;;2.72;2.53;;;15.30;99.90;;;;;;4997655;28;20046;-82
2023/08/30 00:31:56;;;;;;;3.10;2.80;;;14.60;99.90;;;;;;4981484;28;20386;-82
2023/08/30 00:34:22;;;;;;;3.05;2.80;;;15.70;99.90;;;;;;4981340;28;20061;-82
2023/08/30 00:36:47;;;;;;;2.63;2.45;;;13.20;99.90;;;;;;4981343;28;20133;-81
2023/08/30 00:39:13;;;;;;;3.08;2.78;;;14.80;99.90;;;;;;4997639;28;20033;-82
2023/08/30 00:41:39;;;;;;;2.80;2.60;;;15.20;99.90;;;;;;4997483;28;20042;-81
2023/08/30 00:44:05;;;;;;;2.67;2.47;;;13.30;99.90;;;;;;4997691;28;20398;-82
2023/08/30 00:46:32;;;;;;;2.75;2.55;;;13.30;99.90;;;;;;4997842;28;20045;-81
2023/08/30 00:49:00;;;;;;;2.40;2.20;;;14.90;99.90;;;;;;4997591;28;20061;-81
2023/08/30 00:51:26;;;;;;;3.53;2.88;;;15.10;99.90;;;;;;4997272;28;20053;-81
2023/08/30 00:53:54;;;;;;;3.00;2.80;;;14.50;99.90;;;;;;4981399;28;20482;-82
2023/08/30 00:56:20;;;;;;;2.83;2.58;;;13.20;99.90;;;;;;4981030;28;20050;-81
2023/08/30 00:58:50;;;;;;;2.47;2.28;;;14.10;99.90;;;;;;4980771;28;20042;-81
2023/08/30 01:01:18;;;;;;;2.70;2.50;;;13.10;99.90;;;;;;4980843;28;20088;-81
2023/08/30 01:03:44;;;;;;;2.75;2.55;;;13.20;99.90;;;;;;4996968;28;20645;-81
2023/08/30 01:06:09;;;;;;;2.70;2.50;;;13.20;99.90;;;;;;4997862;28;20030;-93
2023/08/30 01:08:38;;;;;;;2.75;2.55;;;13.80;99.90;;;;;;4986829;28;20544;-93
2023/08/30 01:11:59;;;;;;;2.65;2.45;;;13.10;99.90;;;;;;5005094;28;20050;-94
2023/08/30 01:14:33;;;;;;;2.50;2.30;;;13.10;99.90;;;;;;4968440;28;20088;-95
2023/08/30 01:16:59;;;;;;;3.17;2.88;;;13.10;99.90;;;;;;5004351;28;20041;-95
2023/08/30 01:19:53;;;;;;;2.67;2.47;;;13.20;99.90;;;;;;5003366;28;20049;-93
2023/08/30 01:22:50;;;;;;;2.50;2.30;;;13.10;99.90;;;;;;4985819;28;20394;-92
2023/08/30 01:25:25;;;;;;;2.08;1.98;;;13.10;99.90;;;;;;4995394;28;20045;-92
2023/08/30 01:27:51;;;;;;;2.63;2.42;;;13.10;99.90;;;;;;4983232;28;20042;-93
2023/08/30 01:30:18;;;;;;;2.10;1.95;;;13.10;99.90;;;;;;4982265;28;20053;-93
2023/08/30 01:32:46;;;;;;;2.42;2.22;;;13.10;99.90;;;;;;4982256;28;20413;-91
2023/08/30 01:35:17;;;;;;;2.17;2.08;;;13.10;99.90;;;;;;4997899;28;20057;-93
2023/08/30 01:37:46;;;;;;;2.33;2.05;;;13.10;99.90;;;;;;4981161;28;20050;-82
2023/08/30 01:40:14;;;;;;;2.10;2.00;;;13.10;99.90;;;;;;4979965;28;20045;-82
2023/08/30 01:46:21;;;;;;;2.50;2.30;;;13.10;99.90;;;;;;5014594;28;20460;-94
2023/08/30 01:48:49;;;;;;;2.33;2.13;;;13.10;99.90;;;;;;4999528;28;20500;-93
2023/08/30 01:51:16;;;;;;;2.40;2.05;;;13.10;99.90;;;;;;4999595;28;20073;-91
2023/08/30 01:53:44;;;;;;;2.50;2.28;;;13.20;99.90;;;;;;4999371;28;20042;-91
2023/08/30 01:56:10;;;;;;;2.10;1.90;;;13.20;99.90;;;;;;4980928;28;20062;-81
2023/08/30 01:58:36;;;;;;;2.28;2.08;;;13.20;99.90;;;;;;4996039;28;20413;-82
2023/08/30 02:01:02;;;;;;;2.13;2.00;;;13.20;99.90;;;;;;4979751;28;20035;-82
2023/08/30 02:03:27;;;;;;;3.10;2.30;;;15.60;99.90;;;;;;4980080;28;20046;-82
2023/08/30 02:06:02;;;;;;;2.45;2.25;;;13.10;99.90;;;;;;4979707;28;20041;-82
2023/08/30 02:08:38;;;;;;;1.98;1.88;;;13.30;99.90;;;;;;4979759;28;20155;-82
2023/08/30 02:11:11;;;;;;;1.67;1.58;;;15.00;99.90;;;;;;4995939;28;20050;-82
2023/08/30 02:13:38;;;;;;;2.30;2.10;;;15.00;99.90;;;;;;4995853;28;20041;-82
2023/08/30 02:16:04;;;;;;;2.13;2.03;;;14.50;99.90;;;;;;4995894;28;20117;-89
2023/08/30 02:18:30;;;;;;;1.63;1.52;;;13.10;99.90;;;;;;4981664;28;20046;-91
2023/08/30 02:20:56;;;;;;;2.45;2.25;;;13.10;99.90;;;;;;4981923;28;20390;-92
2023/08/30 02:23:25;;;;;;;2.00;1.90;;;13.30;99.90;;;;;;4998217;28;20042;-93
2023/08/30 02:25:51;;;;;;;3.20;2.28;;;15.20;99.90;;;;;;4982108;28;20584;-93
2023/08/30 02:28:16;;;;;;;2.42;2.22;;;13.60;99.90;;;;;;4998223;28;20073;-92
2023/08/30 02:30:42;;;;;;;2.13;1.90;;;13.00;99.90;;;;;;4981434;28;20052;-91
2023/08/30 02:33:07;;;;;;;2.58;2.38;;;12.90;99.90;;;;;;5001077;28;20045;-92
2023/08/30 02:35:35;;;;;;;2.13;2.03;;;12.90;99.90;;;;;;4985668;28;20045;-93
2023/08/30 02:38:04;;;;;;;2.72;2.53;;;12.80;99.90;;;;;;4987287;28;20045;-94
2023/08/30 02:40:31;;;;;;;2.03;1.92;;;13.40;99.90;;;;;;5007054;28;20097;-94
2023/08/30 02:42:57;;;;;;;2.13;2.03;;;13.00;99.90;;;;;;4989492;28;20045;-95
2023/08/30 02:45:22;;;;;;;2.25;2.05;;;12.80;99.90;;;;;;4989630;28;20041;-94
2023/08/30 02:47:48;;;;;;;2.47;1.77;;;12.80;99.90;;;;;;4994714;28;20038;-93
2023/08/30 02:50:14;;;;;;;2.20;2.00;;;13.80;99.90;;;;;;4997501;28;20045;-93
2023/08/30 02:52:39;;;;;;;2.00;1.90;;;12.80;99.90;;;;;;5012414;28;20056;-95
2023/08/30 02:55:06;;;;;;;2.40;2.20;;;14.70;99.90;;;;;;5009661;28;20057;-93
2023/08/30 02:57:31;;;;;;;2.20;2.00;;;12.70;99.90;;;;;;4988864;28;20133;-93
2023/08/30 02:59:57;;;;;;;2.22;2.03;;;12.70;99.90;;;;;;5004258;28;20106;-95
2023/08/30 03:02:23;;;;;;;2.33;2.13;;;13.20;99.90;;;;;;5004920;28;20505;-94
2023/08/30 03:04:48;;;;;;;2.25;2.05;;;12.60;99.90;;;;;;4988745;28;20048;-93
2023/08/30 03:07:14;;;;;;;2.50;2.30;;;13.30;99.90;;;;;;4995706;28;20077;-93
2023/08/30 03:09:40;;;;;;;1.90;1.80;;;14.60;99.90;;;;;;5007821;28;20088;-94
2023/08/30 03:12:06;;;;;;;2.30;2.20;;;12.60;99.90;;;;;;4991460;28;20042;-95
2023/08/30 03:14:32;;;;;;;2.10;2.00;;;12.60;99.90;;;;;;5000804;28;20037;-91
2023/08/30 03:16:58;;;;;;;2.45;2.25;;;12.50;99.90;;;;;;5022025;28;20019;-92
2023/08/30 03:19:23;;;;;;;2.35;2.15;;;12.50;99.90;;;;;;5005494;28;20049;-92
2023/08/30 03:21:49;;;;;;;2.45;2.25;;;12.50;99.90;;;;;;5005517;28;20060;-90
2023/08/30 03:24:15;;;;;;;2.65;2.45;;;12.50;99.90;;;;;;5021639;28;20030;-90
2023/08/30 03:26:44;;;;;;;2.38;2.17;;;12.50;99.90;;;;;;5021564;28;20037;-89
2023/08/30 03:29:10;;;;;;;2.45;2.25;;;12.60;99.90;;;;;;5005312;28;20030;-92
2023/08/30 03:31:35;;;;;;;2.42;2.22;;;12.40;99.90;;;;;;5005269;28;20088;-90
2023/08/30 03:34:01;;;;;;;2.10;1.90;;;12.30;99.90;;;;;;5021286;28;20034;-92
2023/08/30 03:36:28;;;;;;;2.58;2.38;;;12.30;99.90;;;;;;5009297;28;20053;-93
2023/08/30 03:38:53;;;;;;;2.55;2.35;;;12.30;99.90;;;;;;4988623;28;20442;-92
2023/08/30 03:41:19;;;;;;;2.70;2.50;;;12.70;99.90;;;;;;4988140;28;20042;-91
2023/08/30 03:43:45;;;;;;;2.40;2.20;;;12.40;99.90;;;;;;4984977;28;20038;-93
2023/08/30 03:46:11;;;;;;;2.40;2.20;;;14.60;99.90;;;;;;4985958;28;20042;-91
2023/08/30 03:48:37;;;;;;;2.13;1.92;;;12.20;99.90;;;;;;4987330;28;20046;-93
2023/08/30 03:51:03;;;;;;;2.60;2.40;;;12.20;99.90;;;;;;4984919;28;20038;-94
2023/08/30 03:53:30;;;;;;;2.40;2.20;;;12.40;99.90;;;;;;4999577;28;20133;-94
2023/08/30 03:55:55;;;;;;;2.42;2.22;;;12.00;99.90;;;;;;5005136;28;20070;-95
2023/08/30 03:58:21;;;;;;;3.83;2.30;;;12.40;99.90;;;;;;4994218;28;20053;-94
2023/08/30 04:00:47;;;;;;;2.75;2.47;;;12.50;99.90;;;;;;5012385;28;20050;-94
2023/08/30 04:03:17;;;;;;;2.40;2.20;;;12.50;99.90;;;;;;5012596;28;20055;-92
2023/08/30 04:05:42;;;;;;;2.72;2.20;;;12.00;99.90;;;;;;4995221;28;20080;-92
2023/08/30 04:08:08;;;;;;;2.35;2.15;;;12.00;99.90;;;;;;4997249;28;20042;-93
2023/08/30 04:10:36;;;;;;;1.98;1.88;;;13.70;99.90;;;;;;5013222;28;20050;-94
2023/08/30 04:13:02;;;;;;;2.40;2.20;;;12.00;99.90;;;;;;5009220;28;20046;-91
2023/08/30 04:15:28;;;;;;;2.22;2.13;;;12.00;99.90;;;;;;5008586;28;20042;-93
2023/08/30 04:17:53;;;;;;;2.20;2.05;;;11.90;99.90;;;;;;5003626;28;20456;-84
2023/08/30 04:20:19;;;;;;;1.92;1.83;;;12.20;99.90;;;;;;4994444;28;20502;-84
2023/08/30 04:22:45;;;;;;;1.77;1.67;;;12.10;99.90;;;;;;4994751;28;20089;-83
2023/08/30 04:25:10;;;;;;;2.50;2.30;;;13.60;99.90;;;;;;4994443;28;20038;-83
2023/08/30 04:27:36;;;;;;;2.40;2.20;;;12.00;99.90;;;;;;4994320;28;20472;-83
2023/08/30 04:30:02;;;;;;;3.28;2.50;;;12.70;99.90;;;;;;4978313;28;20129;-83
2023/08/30 04:32:28;;;;;;;2.20;2.00;;;11.90;99.90;;;;;;4978206;28;20479;-83
2023/08/30 04:34:53;;;;;;;1.90;1.80;;;11.90;99.90;;;;;;4994240;28;20046;-84
2023/08/30 04:37:19;;;;;;;2.22;1.90;;;14.10;99.90;;;;;;4978638;28;20039;-94
2023/08/30 04:39:48;;;;;;;2.58;2.35;;;11.80;99.90;;;;;;4995039;28;20569;-84
2023/08/30 04:42:14;;;;;;;2.35;2.15;;;11.70;99.90;;;;;;4993982;28;20121;-86
2023/08/30 04:44:40;;;;;;;2.28;2.08;;;11.90;99.90;;;;;;4977764;28;20113;-82
2023/08/30 04:47:05;;;;;;;2.30;2.10;;;11.80;99.90;;;;;;4977979;28;20038;-84
2023/08/30 04:49:31;;;;;;;2.28;2.08;;;11.90;99.90;;;;;;4993724;28;20049;-85
2023/08/30 04:51:56;;;;;;;2.55;2.35;;;12.00;99.90;;;;;;4977861;28;20044;-85
2023/08/30 04:54:22;;;;;;;2.58;2.35;;;12.30;99.90;;;;;;4994058;28;20038;-85
2023/08/30 04:56:48;;;;;;;2.55;2.30;;;12.00;99.90;;;;;;4977262;28;20073;-84
2023/08/30 04:59:14;;;;;;;2.83;2.55;;;12.00;99.90;;;;;;4993645;28;20042;-85
2023/08/30 05:01:44;;;;;;;2.40;2.20;;;12.50;99.90;;;;;;4993646;28;20053;-83
2023/08/30 05:04:10;;;;;;;2.90;2.60;;;11.70;99.90;;;;;;4977333;28;20035;-83
2023/08/30 05:06:36;;;;;;;2.25;2.05;;;14.10;99.90;;;;;;4993867;28;20038;-83
2023/08/30 05:09:02;;;;;;;2.42;2.17;;;11.50;99.90;;;;;;4977498;28;20046;-83
2023/08/30 05:11:37;;;;;;;2.53;2.33;;;12.00;99.90;;;;;;4993722;28;20045;-84
2023/08/30 05:14:12;;;;;;;2.30;2.10;;;14.30;99.90;;;;;;4977241;28;20046;-85
2023/08/30 05:16:43;;;;;;;2.10;1.90;;;13.50;99.90;;;;;;4993796;28;20053;-84
2023/08/30 05:19:14;;;;;;;2.72;2.47;;;10.60;99.90;;;;;;4994851;28;20042;-84
2023/08/30 05:21:39;;;;;;;2.33;2.13;;;13.90;99.90;;;;;;4979351;28;20520;-85
2023/08/30 05:24:08;;;;;;;2.33;2.17;;;12.90;99.90;;;;;;4994280;28;20031;-83
2023/08/30 05:26:34;;;;;;;2.67;2.45;;;12.30;99.90;;;;;;4993486;28;20367;-83
2023/08/30 05:28:59;;;;;;;2.20;2.00;;;13.20;99.90;;;;;;4993123;28;20089;-83
2023/08/30 05:31:25;;;;;;;2.20;2.00;;;12.30;99.90;;;;;;4976881;28;20473;-83
2023/08/30 05:33:50;;;;;;;3.10;2.20;;;12.30;99.90;;;;;;4977087;28;20077;-83
2023/08/30 05:36:17;;;;;;;2.45;2.25;;;12.30;99.90;;;;;;4992969;28;20042;-85
2023/08/30 05:38:43;;;;;;;2.30;2.10;;;12.40;99.90;;;;;;4976608;28;20105;-84
2023/08/30 05:41:08;;;;;;;2.50;2.20;;;14.40;99.90;;;;;;4976603;28;20042;-85
2023/08/30 05:43:34;;;;;;;2.33;2.13;;;14.40;99.90;;;;;;4976667;28;20540;-85
2023/08/30 05:46:03;;;;;;;2.78;2.10;;;12.40;99.90;;;;;;4976644;28;20074;-87
2023/08/30 05:48:29;;;;;;;2.53;2.33;;;12.30;99.90;;;;;;4977179;28;20042;-85
2023/08/30 05:50:54;;;;;;;2.08;1.95;;;12.40;99.90;;;;;;4992986;28;20523;-86
2023/08/30 05:53:24;;;;;;;2.45;2.20;;;14.10;99.90;;;;;;4993028;28;20057;-86
2023/08/30 05:55:49;;;;;;;2.72;2.53;;;13.40;99.90;;;;;;4992850;28;20054;-86
2023/08/30 05:58:17;;;;;;;2.42;2.22;;;14.00;99.90;;;;;;4976376;28;20053;-85
2023/08/30 06:00:43;;;;;;;2.28;2.10;;;13.50;99.90;;;;;;4992441;28;20045;-86
2023/08/30 06:03:08;;;;;;;3.15;2.20;;;12.70;99.90;;;;;;4977084;28;20042;-89
2023/08/30 06:05:34;;;;;;;2.47;2.28;;;14.80;99.90;;;;;;4976408;28;20046;-88
2023/08/30 06:08:00;;;;;;;3.90;2.40;;;12.90;99.90;;;;;;4992807;28;20401;-89
2023/08/30 06:10:27;;;;;;;2.20;2.03;;;15.00;99.90;;;;;;4976971;28;20478;-88
2023/08/30 06:12:52;;;;;;;2.40;2.10;;;12.90;99.90;;;;;;4993537;28;20042;-89
2023/08/30 06:15:18;;;;;;;2.70;2.50;;;14.10;99.90;;;;;;4976955;28;20085;-89
2023/08/30 06:17:46;;;;;;;2.40;2.20;;;14.70;99.90;;;;;;4993090;28;20050;-88
2023/08/30 06:20:12;;;;;;;2.15;1.95;;;14.20;99.90;;;;;;4977380;28;20093;-89
2023/08/30 06:22:37;;;;;;;2.20;2.00;;;12.80;99.90;;;;;;4976659;28;20046;-88
2023/08/30 06:25:06;;;;;;;2.28;2.08;;;14.10;99.90;;;;;;4993606;28;20039;-90
2023/08/30 06:27:32;;;;;;;1.88;1.77;;;13.10;99.90;;;;;;4978084;28;20129;-89
2023/08/30 06:30:01;;;;;;;2.38;2.17;;;13.10;99.90;;;;;;4994712;28;20042;-89
2023/08/30 06:32:26;;;;;;;2.58;2.38;;;13.10;99.90;;;;;;4977144;28;20053;-88
2023/08/30 06:34:52;;;;;;;2.17;1.98;;;13.30;99.90;;;;;;4976434;28;20104;-90
2023/08/30 06:37:17;;;;;;;2.33;2.13;;;13.30;99.90;;;;;;4976166;28;20065;-89
2023/08/30 06:39:43;;;;;;;2.17;2.03;;;13.30;99.90;;;;;;4976127;28;20034;-88
2023/08/30 06:42:08;;;;;;;2.40;2.20;;;13.40;99.90;;;;;;4976849;28;20511;-89
2023/08/30 06:44:34;;;;;;;2.08;1.88;;;14.10;99.90;;;;;;4976381;28;20046;-88
2023/08/30 06:47:01;;;;;;;3.70;2.00;;;15.50;99.90;;;;;;4976024;28;20429;-88
2023/08/30 06:49:26;;;;;;;2.10;1.90;;;13.70;99.90;;;;;;4976009;28;20104;-88
2023/08/30 06:51:52;;;;;;;1.90;1.80;;;13.90;99.90;;;;;;4992693;28;20035;-91
2023/08/30 06:54:18;;;;;;;2.88;2.13;;;14.60;99.90;;;;;;4992106;28;20417;-90
2023/08/30 06:57:00;;;;;;;2.10;1.90;;;14.20;99.90;;;;;;4976010;28;20057;-88
2023/08/30 06:59:26;;;;;;;2.03;1.92;;;14.20;99.90;;;;;;4992434;28;20045;-89
2023/08/30 07:01:52;;;;;;;2.63;2.10;;;15.40;99.90;;;;;;4992220;28;20049;-88
2023/08/30 07:04:18;;;;;;;3.22;2.55;;;15.00;99.90;;;;;;4960549;28;20121;-88
2023/08/30 07:06:43;;;;;;;2.28;2.08;;;14.20;99.90;;;;;;4976089;28;20045;-87
2023/08/30 07:09:09;;;;;;;2.40;2.20;;;14.40;99.90;;;;;;4977055;28;20038;-88
2023/08/30 07:11:36;;;;;;;2.97;2.30;;;14.60;99.90;;;;;;4992297;28;20086;-89
2023/08/30 07:14:02;;;;;;;2.63;2.30;;;16.80;99.90;;;;;;4975938;28;20042;-88
2023/08/30 07:16:27;;;;;;;2.60;2.30;;;14.60;99.90;;;;;;4992105;28;20320;-89
2023/08/30 07:18:53;;;;;;;2.00;1.90;;;14.50;99.90;;;;;;4977634;28;20450;-86
2023/08/30 07:21:18;;;;;;;3.20;2.38;;;15.90;99.90;;;;;;4979112;28;20046;-86
2023/08/30 07:23:44;;;;;;;2.30;2.10;;;15.90;99.90;;;;;;4995370;28;20061;-86
2023/08/30 07:26:10;;;;;;;2.42;2.20;;;14.60;99.90;;;;;;4995383;28;20042;-87
2023/08/30 07:28:35;;;;;;;2.28;2.08;;;14.50;99.90;;;;;;4979290;28;20101;-86
2023/08/30 07:31:04;;;;;;;7.13;2.30;;;14.50;99.90;;;;;;4979135;28;20129;-85
2023/08/30 07:33:30;;;;;;;2.10;1.90;;;15.70;99.90;;;;;;4995215;28;20163;-86
2023/08/30 07:35:56;;;;;;;2.13;1.95;;;14.40;99.90;;;;;;4995336;28;20042;-86
2023/08/30 07:38:22;;;;;;;2.15;1.95;;;14.50;99.90;;;;;;4979288;28;20034;-84
2023/08/30 07:40:47;;;;;;;2.40;2.20;;;15.70;99.90;;;;;;4994960;28;20046;-86
2023/08/30 07:43:13;;;;;;;3.05;2.40;;;16.30;99.90;;;;;;4978695;28;20442;-86
2023/08/30 07:45:38;;;;;;;2.38;2.17;;;16.50;99.90;;;;;;4994869;28;20050;-86
2023/08/30 07:48:04;;;;;;;2.30;2.10;;;14.70;99.90;;;;;;4978910;28;20372;-85
2023/08/30 07:50:30;;;;;;;3.13;2.13;;;14.70;99.90;;;;;;4978667;28;20046;-85
2023/08/30 07:52:55;;;;;;;2.45;2.17;;;14.80;99.90;;;;;;4994827;28;20437;-87
2023/08/30 07:55:21;;;;;;;2.20;2.00;;;14.90;99.90;;;;;;4994624;28;20112;-86
2023/08/30 07:57:47;;;;;;;2.47;2.28;;;15.80;99.90;;;;;;4978681;28;20038;-84
2023/08/30 08:00:13;;;;;;;2.30;2.10;;;14.90;99.90;;;;;;4994688;28;20089;-85
2023/08/30 08:02:39;;;;;;;2.20;2.00;;;15.00;99.90;;;;;;4978383;28;20038;-85
2023/08/30 08:05:05;;;;;;;3.63;2.08;;;15.10;99.90;;;;;;4994633;28;20404;-85
2023/08/30 08:07:31;;;;;;;2.13;1.92;;;15.20;99.90;;;;;;4994489;28;20039;-85
2023/08/30 08:09:57;;;;;;;2.47;2.28;;;16.00;99.90;;;;;;4978315;28;20049;-85
2023/08/30 08:12:22;;;;;;;2.22;2.03;;;16.70;99.90;;;;;;4994602;28;20096;-85
2023/08/30 08:14:48;;;;;;;2.20;2.00;;;15.50;99.90;;;;;;4978446;28;20050;-85
2023/08/30 08:17:14;;;;;;;2.38;2.03;;;18.20;99.90;;;;;;4978110;28;20042;-85
2023/08/30 08:19:39;;;;;;;2.28;2.08;;;15.80;99.70;;;;;;4978599;28;20038;-85
2023/08/30 08:22:05;;;;;;;2.40;2.20;;;16.20;97.90;;;;;;4994161;28;20042;-82
2023/08/30 08:24:31;;;;;;;2.40;2.20;;;16.00;98.10;;;;;;4994486;28;20395;-84
2023/08/30 08:26:57;;;;;;;2.00;1.80;;;16.00;98.10;;;;;;4977992;28;20046;-83
2023/08/30 08:29:23;;;;;;;2.13;2.03;;;17.10;99.10;;;;;;4994277;28;20125;-86
2023/08/30 08:31:48;;;;;;;2.10;1.90;;;17.50;99.90;;;;;;4977302;28;20401;-85
2023/08/30 08:34:14;;;;;;;2.40;2.20;;;15.80;98.50;;;;;;4994251;28;20108;-85
2023/08/30 08:36:41;;;;;;;2.08;1.75;;;16.40;98.80;;;;;;4994054;28;20070;-83
2023/08/30 08:39:09;;;;;;;2.63;2.00;;;15.60;99.00;;;;;;4994141;28;20035;-83
2023/08/30 08:41:42;;;;;;;3.33;2.65;;;16.50;98.10;;;;;;4977795;28;20081;-84
2023/08/30 08:44:09;;;;;;;2.35;2.10;;;16.10;98.10;;;;;;4977869;28;20503;-85
2023/08/30 08:46:36;;;;;;;2.30;2.10;;;17.40;99.10;;;;;;4977857;28;20042;-84
2023/08/30 08:49:21;;;;;;;2.80;2.20;;;16.10;98.50;;;;;;4994118;28;20608;-84
2023/08/30 08:51:46;;;;;;;2.80;2.58;;;16.20;96.80;;;;;;4993758;28;20042;-84
2023/08/30 08:54:13;;;;;;;2.28;2.08;;;16.30;98.90;;;;;;4977625;28;20042;-84
2023/08/30 08:56:39;;;;;;;1.92;1.80;;;16.30;98.70;;;;;;4993475;28;20160;-83
2023/08/30 08:59:06;;;;;;;2.38;2.17;;;16.00;97.70;;;;;;4993905;28;20050;-82
2023/08/30 09:01:35;;;;;;;2.10;1.90;;;16.00;97.60;;;;;;4993623;28;20093;-83
2023/08/30 09:04:05;;;;;;;2.45;2.25;;;16.70;99.90;;;;;;4993746;28;20052;-83
2023/08/30 09:06:30;;;;;;;1.80;1.70;;;19.30;98.60;;;;;;4993644;28;20047;-84
2023/08/30 09:08:56;;;;;;;2.67;1.95;;;16.30;95.80;;;;;;4993633;28;20315;-84
2023/08/30 09:11:22;;;;;;;1.80;1.70;;;16.80;96.00;;;;;;4977602;28;20085;-83
2023/08/30 09:13:47;;;;;;;1.80;1.70;;;17.00;97.10;;;;;;4993647;28;20057;-82
2023/08/30 09:16:14;;;;;;;2.00;1.80;;;16.70;95.70;;;;;;4993201;28;20043;-83
2023/08/30 09:18:43;;;;;;;1.98;1.73;;;17.00;96.00;;;;;;4977149;28;20041;-84
2023/08/30 09:21:10;;;;;;;2.13;1.92;;;17.60;95.80;;;;;;4993255;28;20082;-84
2023/08/30 09:23:36;;;;;;;2.20;2.00;;;17.00;95.80;;;;;;4977594;28;20577;-85
2023/08/30 09:26:02;;;;;;;1.90;1.80;;;18.40;96.70;;;;;;4977038;28;20406;-84
2023/08/30 09:28:28;;;;;;;1.88;1.77;;;16.80;96.00;;;;;;4976955;28;20041;-83
2023/08/30 09:30:54;;;;;;;2.40;2.20;;;17.10;95.60;;;;;;4976864;28;20042;-84
2023/08/30 09:33:31;;;;;;;1.90;1.73;;;16.90;96.00;;;;;;4992875;28;20104;-83
2023/08/30 09:35:58;;;;;;;2.13;1.92;;;17.00;95.70;;;;;;4993056;28;20133;-83
2023/08/30 09:38:25;;;;;;;1.75;1.65;;;17.10;97.20;;;;;;4993328;28;20046;-83
2023/08/30 09:40:50;;;;;;;1.63;1.52;;;17.50;97.50;;;;;;4992664;28;20057;-84
2023/08/30 09:43:21;;;;;;;2.38;2.13;;;16.60;97.50;;;;;;4992197;28;20398;-81
2023/08/30 09:45:47;;;;;;;;;;;16.20;97.00;;;;;;4977084;28;20034;-83
2023/08/30 09:48:13;;;;;;;2.83;2.00;;;16.30;95.10;;;;;;4976941;28;19925;-83
2023/08/30 09:50:41;;;;;;;1.85;1.75;;;17.00;98.00;;;;;;4992931;28;20042;-83
2023/08/30 09:53:09;;;;;;;2.38;2.13;;;16.40;98.30;;;;;;4976463;28;20107;-83
2023/08/30 09:55:35;;;;;;;1.88;1.77;;;16.40;98.10;;;;;;4992584;28;20046;-83
2023/08/30 09:58:04;;;;;;;2.13;1.92;;;15.90;98.60;;;;;;4992693;28;20478;-83
2023/08/30 10:00:33;;;;;;;2.17;1.98;;;16.80;98.70;;;;;;4992547;28;20046;-83
2023/08/30 10:02:59;;;;;;;2.00;1.80;;;16.60;99.90;;;;;;4992444;28;20046;-82
2023/08/30 10:05:26;;;;;;;2.08;1.88;;;16.00;99.90;;;;;;4992755;28;20061;-83
2023/08/30 10:07:56;;;;;;;2.30;2.10;;;15.40;99.90;;;;;;4992471;28;20045;-83
2023/08/30 10:10:23;;;;;;;2.08;1.88;;;15.90;99.90;;;;;;4992840;28;20519;-84
2023/08/30 10:12:49;;;;;;;3.05;2.58;;;15.40;99.90;;;;;;4976470;28;20467;-84
2023/08/30 10:15:16;;;;;;;2.10;1.70;;;16.10;99.90;;;;;;4976361;28;20049;-84
2023/08/30 10:17:45;;;;;;;1.80;1.70;;;15.70;99.90;;;;;;4976320;28;20042;-85
2023/08/30 10:20:14;;;;;;;1.70;1.60;;;15.60;99.90;;;;;;4992573;28;20039;-83
2023/08/30 10:22:41;;;;;;;1.88;1.77;;;15.60;99.90;;;;;;4976092;28;20398;-84
2023/08/30 10:25:16;;;;;;;1.83;1.70;;;15.40;99.90;;;;;;4992553;28;20039;-83
2023/08/30 10:27:46;;;;;;;2.63;1.88;;;15.70;99.90;;;;;;4976391;28;20096;-83
2023/08/30 10:30:13;;;;;;;2.10;1.90;;;16.00;99.90;;;;;;4992451;28;20050;-83
2023/08/30 10:32:42;;;;;;;2.40;2.20;;;15.80;99.90;;;;;;4976175;28;20042;-83
2023/08/30 10:35:14;;;;;;;2.30;1.63;;;17.00;99.90;;;;;;4992678;28;20050;-83
2023/08/30 10:37:40;;;;;;;1.42;1.33;;;17.10;99.90;;;;;;4992517;28;20039;-84
2023/08/30 10:40:07;;;;;;;1.70;1.60;;;17.60;99.90;;;;;;4992122;28;20454;-84
2023/08/30 10:42:33;;;;;;;1.73;1.63;;;16.10;99.90;;;;;;4976217;28;20044;-83
2023/08/30 10:45:07;;;;;;;1.63;1.52;;;15.60;99.90;;;;;;4992276;28;20420;-84
2023/08/30 10:47:37;;;;;;;2.20;2.00;;;16.00;99.90;;;;;;4992800;28;20034;-81
2023/08/30 10:50:11;;;;;;;2.15;1.95;;;18.00;99.90;;;;;;4976142;28;20121;-81
2023/08/30 10:52:37;;;;;;;2.22;2.05;;;15.90;99.90;;;;;;4992209;28;20453;-81
2023/08/30 10:55:14;;;;;;;2.08;1.83;;;15.90;99.90;;;;;;4995820;28;20144;-82
2023/08/30 10:57:45;;;;;;;2.00;1.85;;;17.70;99.90;;;;;;4979983;28;20054;-81
2023/08/30 11:00:11;;;;;;;2.05;1.92;;;18.00;99.90;;;;;;4979690;28;20089;-81
2023/08/30 11:02:38;;;;;;;2.22;2.03;;;16.30;99.90;;;;;;4995997;28;20429;-81
2023/08/30 11:05:06;;;;;;;2.25;2.05;;;16.20;99.90;;;;;;4995788;28;20043;-81
2023/08/30 11:07:32;;;;;;;2.03;1.83;;;16.40;99.90;;;;;;4996105;28;20043;-82
2023/08/30 11:09:58;;;;;;;1.60;1.50;;;16.30;99.90;;;;;;4979481;28;20038;-82
2023/08/30 11:12:29;;;;;;;1.63;1.42;;;16.20;99.90;;;;;;4995623;28;20133;-83
2023/08/30 11:14:55;;;;;;;2.00;1.80;;;17.80;99.90;;;;;;4995608;28;20109;-83
2023/08/30 11:17:21;;;;;;;1.75;1.65;;;16.40;99.90;;;;;;4995565;28;20042;-83
2023/08/30 11:19:51;;;;;;;1.92;1.83;;;16.00;99.90;;;;;;4995436;28;20082;-83
2023/08/30 11:22:17;;;;;;;1.80;1.63;;;16.80;99.90;;;;;;4995700;28;20077;-84
2023/08/30 11:24:43;;;;;;;1.77;1.67;;;15.50;99.90;;;;;;4995492;28;20039;-83
2023/08/30 11:27:09;;;;;;;1.45;1.30;;;16.00;99.90;;;;;;4979647;28;20473;-83
2023/08/30 11:29:35;;;;;;;1.42;1.33;;;16.70;99.90;;;;;;4995305;28;20035;-83
2023/08/30 11:32:01;;;;;;;1.20;1.10;;;15.30;99.90;;;;;;4978981;28;20038;-83
2023/08/30 11:34:26;;;;;;;1.40;1.30;;;15.90;99.90;;;;;;4995469;28;20042;-83
2023/08/30 11:36:52;;;;;;;1.38;1.27;;;15.40;99.90;;;;;;4995358;28;20038;-83
2023/08/30 11:39:18;;;;;;;1.42;1.30;;;15.20;99.90;;;;;;4995111;28;20061;-84
2023/08/30 11:41:44;;;;;;;1.50;1.33;;;15.30;99.90;;;;;;4994865;28;20053;-83
2023/08/30 11:44:10;;;;;;;1.40;1.30;;;15.20;99.90;;;;;;4978875;28;20035;-83
2023/08/30 11:46:36;;;;;;;1.30;1.20;;;15.40;99.90;;;;;;4978698;28;20042;-83
2023/08/30 11:49:02;;;;;;;1.30;1.20;;;15.20;99.90;;;;;;4978859;28;20483;-83
2023/08/30 11:51:29;;;;;;;1.52;1.42;;;15.50;99.90;;;;;;4995124;28;20391;-83
2023/08/30 11:53:55;;;;;;;1.55;1.45;;;17.00;99.90;;;;;;4978789;28;20491;-83
2023/08/30 11:56:22;;;;;;;1.73;1.63;;;15.70;99.90;;;;;;4994579;28;20506;-83
2023/08/30 11:58:48;;;;;;;1.58;1.40;;;14.80;99.90;;;;;;4978531;28;20093;-82
2023/08/30 12:01:14;;;;;;;1.63;1.52;;;15.30;99.90;;;;;;4978468;28;20078;-82
2023/08/30 12:03:39;;;;;;;2.55;1.35;;;15.70;99.90;;;;;;4994642;28;20042;-83
2023/08/30 12:06:12;;;;;;;1.58;1.20;;;15.70;99.90;;;;;;4993496;28;20038;-82
2023/08/30 12:08:38;;;;;;;1.60;1.50;;;16.50;99.90;;;;;;4994837;28;20046;-83
2023/08/30 12:11:03;;;;;;;1.38;1.27;;;15.20;99.90;;;;;;4994582;28;20096;-83
2023/08/30 12:13:32;;;;;;;1.30;1.05;;;16.90;99.90;;;;;;4995251;28;20081;-82
2023/08/30 12:15:58;;;;;;;1.40;1.30;;;15.90;99.90;;;;;;4978808;28;20042;-83
2023/08/30 12:18:29;;;;;;;1.38;1.27;;;15.30;99.90;;;;;;4994696;28;20038;-87
2023/08/30 12:20:56;;;;;;;1.38;1.27;;;15.50;99.90;;;;;;4994170;28;20045;-85
2023/08/30 12:23:23;;;;;;;1.15;1.08;;;16.50;99.90;;;;;;4977966;28;20050;-86
2023/08/30 12:26:05;;;;;;;1.50;1.40;;;16.20;99.90;;;;;;4978111;28;20046;-86
2023/08/30 12:28:36;;;;;;;1.40;1.30;;;15.60;99.90;;;;;;4994285;28;20038;-87
2023/08/30 12:31:03;;;;;;;1.38;1.27;;;15.40;99.90;;;;;;4977856;28;20046;-86
2023/08/30 12:33:30;;;;;;;1.40;1.30;;;17.70;99.90;;;;;;4977853;28;20042;-85
2023/08/30 12:35:56;;;;;;;1.60;1.50;;;17.30;99.90;;;;;;4977932;28;20490;-85
2023/08/30 12:38:22;;;;;;;1.38;1.27;;;15.80;99.90;;;;;;4994373;28;20629;-85
2023/08/30 12:40:50;;;;;;;1.20;1.13;;;16.20;99.90;;;;;;4993851;28;20410;-85
2023/08/30 12:43:17;;;;;;;1.95;1.50;;;15.90;99.90;;;;;;4977918;28;20049;-87
2023/08/30 12:45:44;;;;;;;1.35;1.20;;;16.30;99.90;;;;;;4993845;28;20038;-86
2023/08/30 12:48:10;;;;;;;1.55;1.45;;;18.10;99.90;;;;;;4977547;28;20038;-85
2023/08/30 12:50:37;;;;;;;1.17;1.08;;;16.40;99.90;;;;;;4993919;28;20418;-85